EHEHLEAL

Guest
Details From EHEH - Eindhoven
To LEAL - Alicante
Flight Number -
Tags Decoded
Created
Modified
Stats Distance 829 nm / 1,535 km
Max Altitude 0 ft / 0 m
Waypoints 2
Social Downloads 0
Likes 0
Share VATSIM

Download

Looking for another format? Having issues loading an existing format? Contact us
Advertisement - Login to hide

Notes

Decoded

Route

EHEH LEAL

ID Type Via Altitude Latitude Longitude Leg Dist Tot Dist Heading (true) Name
O EHEH APT - 0 ft / 0 m 51.43909˚ 5.36214˚ - 0 nm - -
O LEAL APT - 0 ft / 0 m 38.28452˚ -0.57500˚ 828 nm 828 nm 200° / 196° -

Altitude Profile

Advertisement - Login to hide

Weather


0- 5 10 15 20 25 30 35+ Temperature / ° C

Clouds and Precipitation
Forecast for 2017-12-18 00:00 UTC. Updated 2 minutes ago

Ground ~20,000 ft ~40,000 ft Winds

EHEH

Details ICAO EHEH (EIN)
Name Eindhoven
Region Netherlands
Timezone Europe/Amsterdam (UTC+1.0)
Stats Elevation 74 ft / 23 m (AMSL)
Location 51.450133° 5.374513°
Runways 1
Magnetic Variation 1.373° E

METAR

EHEH 172120Z AUTO 19013KT 150V220 4300 DZRA FEW008 SCT025 BKN030 02/01 Q1020 GRN 20012KT 9999 BKN015 OVC020 TEMPO 4500 -RASN BKN008 OVC012

Decode

TAF

TAF TAF EHEH 171743Z 1718/1824 20009KT 9000 FEW030 OVC100 BECMG 1719/1721 19013KT 5000 -RA SCT015 BKN020 OVC050 PROB40 1719/1723 2000 -RASN BKN004 BKN008 OVC015 TEMPO 1721/1800 22012G22KT 4500 RA SCT007 BKN010 0VC015 TEMPO 1923/2005 1500 DZ BKN003 OVC005 BECMG 1805/1806 32008KT 8000 NSW SCT020 SCT030

Decode

Departure Runways

ID Width Length Bearing (true) Bearing (mag) Surface Threshold Offset Overrun Length
03 148 ft / 45 m 9,832 ft / 2,997 m 34.92° 33.55° Asphalt 821 ft / 250 m 0 ft / 0 m
21 148 ft / 45 m 9,832 ft / 2,997 m 214.94° 213.57° Asphalt 821 ft / 250 m 0 ft / 0 m

LEAL

Details ICAO LEAL (ALC)
Name Alicante
Region Spain
Timezone Europe/Madrid (UTC+1.0)
Stats Elevation 141 ft / 43 m (AMSL)
Location 38.282169° -0.558157°
Runways 1
Magnetic Variation 0.184° E

METAR

LEAL 172100Z 30005KT CAVOK 07/01 Q1031 NOSIG

Decode

TAF

TAF TAF LEAL 171700Z 1718/1818 30005KT 9999 FEW030 TX15/1813Z TN04/1806Z

Decode

Destination Runways

ID Width Length Bearing (true) Bearing (mag) Surface Threshold Offset Overrun Length
10 148 ft / 45 m 9,799 ft / 2,987 m 100.07° 99.89° Asphalt 0 ft / 0 m 164 ft / 50 m
28 148 ft / 45 m 9,799 ft / 2,987 m 280.09° 279.91° Asphalt 0 ft / 0 m 197 ft / 60 m

Approach Navaids

Runway Type Ident Frequency Range Bearing (true) Bearing (mag) Slope Elevation
10 Localiser IAT 110.30 MHz 18 nm / 33 km 100.09° 99.91° - 29 ft / 9 m (AMSL)
10 Glidescope IAT 110.30 MHz 10 nm / 19 km 100.09° 99.91° 3.00° 129 ft / 39 m (AMSL)
10 DME IAT 110.30 MHz 18 nm / 33 km - - - 129 ft / 39 m (AMSL)

Popular Alternatives